Time;durP1;ratioP1;P1;durP2;ratioP2;P2;SDS_P1;SDS_P2;PMS_P1;PMS_P2;Temp;Humidity;BMP_temperature;BMP_pressure;BME280_temperature;BME280_humidity;BME280_pressure;Samples;Min_cycle;Max_cycle;Signal;HPM_P1;HPM_P2
2022/01/30 00:00:56;;;;;;;23.08;4.82;;;6.80;99.90;;;;;;5030752;28;20479;-40
2022/01/30 00:03:22;;;;;;;19.20;4.80;;;6.70;99.90;;;;;;5030085;28;20029;-40
2022/01/30 00:05:47;;;;;;;20.50;4.20;;;6.70;99.90;;;;;;5029110;28;20030;-40
2022/01/30 00:08:13;;;;;;;26.90;4.70;;;6.60;99.90;;;;;;5029444;28;20037;-41
2022/01/30 00:10:40;;;;;;;23.70;4.72;;;6.60;99.90;;;;;;5030394;28;20029;-41
2022/01/30 00:13:10;;;;;;;28.63;5.55;;;6.60;99.90;;;;;;5030078;28;20502;-41
2022/01/30 00:15:50;;;;;;;29.50;4.85;;;6.40;99.90;;;;;;5030334;28;20030;-40
2022/01/30 00:18:30;;;;;;;24.98;5.10;;;6.30;99.90;;;;;;5029677;28;20021;-40
2022/01/30 00:23:29;;;;;;;25.13;4.32;;;6.00;99.90;;;;;;5030320;28;20080;-41
2022/01/30 00:25:56;;;;;;;20.02;4.85;;;5.80;99.90;;;;;;5029969;28;20026;-41
2022/01/30 00:28:25;;;;;;;36.20;6.22;;;5.70;99.90;;;;;;5029307;28;20092;-41
2022/01/30 00:30:51;;;;;;;33.50;5.20;;;5.70;99.90;;;;;;5027154;28;20025;-41
2022/01/30 00:33:17;;;;;;;28.35;6.00;;;5.80;99.90;;;;;;5029657;28;20025;-40
2022/01/30 00:35:42;;;;;;;31.08;5.65;;;5.80;99.90;;;;;;5029495;28;20463;-41
2022/01/30 00:38:15;;;;;;;30.95;5.30;;;5.90;99.90;;;;;;5029129;28;20161;-41
2022/01/30 00:40:41;;;;;;;27.30;5.00;;;6.00;99.90;;;;;;5028304;28;20043;-40
2022/01/30 00:43:07;;;;;;;31.27;4.53;;;6.00;99.90;;;;;;5029161;28;20029;-40
2022/01/30 00:45:32;;;;;;;34.80;5.47;;;6.20;99.90;;;;;;5029517;28;20140;-41
2022/01/30 00:47:58;;;;;;;24.70;4.20;;;6.20;99.90;;;;;;5029312;28;20105;-41
2022/01/30 00:50:24;;;;;;;20.63;3.95;;;6.30;99.90;;;;;;5029454;28;20037;-41
2022/01/30 00:52:53;;;;;;;28.45;4.50;;;6.30;99.90;;;;;;5029429;28;20108;-41
2022/01/30 00:55:19;;;;;;;26.27;4.68;;;6.30;99.90;;;;;;5029624;28;20021;-40
2022/01/30 00:57:45;;;;;;;20.33;4.57;;;6.30;99.90;;;;;;5027676;28;20180;-41
2022/01/30 01:00:11;;;;;;;22.98;3.95;;;6.30;99.90;;;;;;5029396;28;20018;-41
2022/01/30 01:02:37;;;;;;;28.40;5.05;;;6.30;99.90;;;;;;5029536;28;20103;-40
2022/01/30 01:05:05;;;;;;;26.95;5.65;;;6.20;99.90;;;;;;5029490;28;20033;-40
2022/01/30 01:07:32;;;;;;;23.83;5.22;;;6.20;99.90;;;;;;5028937;28;20033;-40
2022/01/30 01:10:06;;;;;;;27.92;4.82;;;6.20;99.90;;;;;;5029312;28;20048;-41
2022/01/30 01:13:22;;;;;;;21.58;5.45;;;6.20;99.90;;;;;;5029167;28;20018;-41
2022/01/30 01:23:24;;;;;;;46.13;5.38;;;5.80;99.90;;;;;;5029309;28;20115;-41
2022/01/30 01:23:49;;;;;;;29.25;5.85;;;5.60;99.90;;;;;;5028875;28;20025;-41
2022/01/30 01:26:15;;;;;;;23.92;4.78;;;5.50;99.90;;;;;;5028965;28;20466;-41
2022/01/30 01:28:41;;;;;;;32.20;4.47;;;5.50;99.90;;;;;;5028334;28;20025;-41
2022/01/30 01:31:06;;;;;;;30.20;7.60;;;5.50;99.90;;;;;;5028808;28;20370;-41
2022/01/30 01:33:53;;;;;;;37.75;6.18;;;5.50;99.90;;;;;;5028839;28;20021;-41
2022/01/30 01:36:19;;;;;;;35.55;5.10;;;5.40;99.90;;;;;;5028763;28;20100;-41
2022/01/30 01:38:44;;;;;;;27.55;5.45;;;5.40;99.90;;;;;;5028147;28;20109;-41
2022/01/30 01:41:11;;;;;;;34.15;5.18;;;5.40;99.90;;;;;;5028867;28;20029;-41
2022/01/30 01:43:37;;;;;;;31.08;6.03;;;5.40;99.90;;;;;;5028559;28;20021;-41
2022/01/30 01:46:04;;;;;;;34.17;6.70;;;5.40;99.90;;;;;;5028956;28;20487;-41
2022/01/30 01:48:35;;;;;;;30.83;5.57;;;5.50;99.90;;;;;;5027994;28;20449;-41
2022/01/30 01:51:16;;;;;;;;;;;5.50;99.90;;;;;;5028965;28;20033;-41
2022/01/30 01:53:48;;;;;;;26.08;4.78;;;5.70;99.90;;;;;;5028583;28;20407;-41
2022/01/30 01:56:14;;;;;;;;;;;5.70;99.90;;;;;;5029046;28;20033;-41
2022/01/30 01:58:40;;;;;;;36.63;6.15;;;5.80;99.90;;;;;;5027957;28;19927;-40
2022/01/30 02:01:06;;;;;;;24.00;5.97;;;5.80;99.90;;;;;;5028505;28;20480;-41
2022/01/30 02:03:35;;;;;;;23.05;4.93;;;5.80;99.90;;;;;;5027412;28;20040;-40
2022/01/30 02:06:03;;;;;;;26.35;5.88;;;6.00;99.90;;;;;;5028540;28;20025;-41
2022/01/30 02:08:41;;;;;;;29.42;4.65;;;6.00;99.90;;;;;;5027998;28;20049;-41
2022/01/30 02:11:12;;;;;;;27.73;5.68;;;6.00;99.90;;;;;;5028606;28;20034;-41
2022/01/30 02:13:54;;;;;;;35.33;5.75;;;6.00;99.90;;;;;;5028583;28;20071;-41
2022/01/30 02:27:24;;;;;;;47.22;6.07;;;6.20;99.90;;;;;;5027721;28;20021;-40
2022/01/30 02:29:50;;;;;;;26.63;5.25;;;6.10;99.90;;;;;;5028032;28;20506;-41
2022/01/30 02:32:16;;;;;;;25.15;5.68;;;6.10;99.90;;;;;;5028346;28;20061;-41
2022/01/30 02:34:42;;;;;;;26.95;5.18;;;6.10;99.90;;;;;;5028444;28;20076;-41
2022/01/30 02:37:07;;;;;;;26.60;5.38;;;6.10;99.90;;;;;;5028406;28;20029;-41
2022/01/30 02:39:33;;;;;;;29.38;6.60;;;6.10;99.90;;;;;;5026406;28;20028;-41
2022/01/30 02:41:59;;;;;;;37.15;7.32;;;6.10;99.90;;;;;;5028415;28;20044;-40
2022/01/30 02:44:42;;;;;;;39.55;6.78;;;6.10;99.90;;;;;;5028446;28;20098;-40
2022/01/30 02:47:21;;;;;;;27.90;5.45;;;6.10;99.90;;;;;;5028070;28;20074;-41
2022/01/30 02:52:31;;;;;;;31.40;5.72;;;6.10;99.90;;;;;;5028106;28;20036;-41
2022/01/30 02:54:57;;;;;;;26.90;5.60;;;6.10;99.90;;;;;;5030585;28;20267;-41
2022/01/30 02:57:22;;;;;;;33.28;5.88;;;6.10;99.90;;;;;;5042211;28;20018;-41
2022/01/30 02:59:49;;;;;;;21.02;5.05;;;6.20;99.90;;;;;;5039618;28;20357;-40
2022/01/30 03:02:16;;;;;;;24.30;4.32;;;6.20;99.90;;;;;;5043112;28;20029;-41
2022/01/30 03:04:41;;;;;;;27.65;5.30;;;6.20;99.90;;;;;;5046246;28;20024;-41
2022/01/30 03:07:07;;;;;;;33.70;5.00;;;6.20;99.90;;;;;;5039745;28;20140;-41
2022/01/30 03:09:32;;;;;;;30.85;6.38;;;6.30;99.90;;;;;;5045532;28;20074;-40
2022/01/30 03:11:58;;;;;;;25.77;4.53;;;6.30;99.90;;;;;;5051347;28;20036;-40
2022/01/30 03:14:23;;;;;;;27.13;4.55;;;6.40;99.90;;;;;;5050145;28;20179;-40
2022/01/30 03:16:49;;;;;;;26.02;5.72;;;6.30;99.90;;;;;;5050027;28;20060;-40
2022/01/30 03:19:14;;;;;;;23.88;4.32;;;6.30;99.90;;;;;;5050747;28;20111;-41
2022/01/30 03:21:40;;;;;;;30.70;5.40;;;6.30;99.90;;;;;;5051179;28;20402;-41
2022/01/30 03:24:05;;;;;;;30.80;5.35;;;6.30;99.90;;;;;;5051239;28;20602;-41
2022/01/30 03:26:37;;;;;;;17.60;5.00;;;6.30;99.90;;;;;;5051543;28;20033;-41
2022/01/30 03:29:06;;;;;;;25.70;4.25;;;6.40;99.90;;;;;;5050648;28;20443;-40
2022/01/30 03:31:36;;;;;;;22.92;4.40;;;6.40;99.90;;;;;;5051086;28;20029;-41
2022/01/30 03:34:03;;;;;;;32.20;4.70;;;6.30;99.90;;;;;;5049794;28;20029;-40
2022/01/30 03:36:28;;;;;;;30.08;5.68;;;6.20;99.90;;;;;;5049658;28;20036;-41
2022/01/30 03:38:54;;;;;;;30.83;5.53;;;6.20;99.90;;;;;;5050288;28;20029;-41
2022/01/30 03:41:20;;;;;;;28.77;4.25;;;6.20;99.90;;;;;;5051090;28;20028;-41
2022/01/30 03:43:45;;;;;;;34.90;6.20;;;6.10;99.90;;;;;;5050895;28;20029;-41
2022/01/30 03:46:11;;;;;;;32.63;5.63;;;6.10;99.90;;;;;;5050815;28;20107;-41
2022/01/30 03:48:36;;;;;;;41.55;6.30;;;6.10;99.90;;;;;;5050189;28;20037;-40
2022/01/30 03:51:02;;;;;;;24.42;5.00;;;6.00;99.90;;;;;;5050659;28;20037;-41
2022/01/30 03:53:28;;;;;;;24.27;5.00;;;6.00;99.90;;;;;;5050827;28;20029;-44
2022/01/30 03:55:53;;;;;;;31.98;5.07;;;6.00;99.90;;;;;;5050906;28;20438;-44
2022/01/30 03:58:19;;;;;;;31.33;5.43;;;6.00;99.90;;;;;;5050295;28;20032;-44
2022/01/30 04:00:45;;;;;;;38.47;6.68;;;6.00;99.90;;;;;;5051107;28;20025;-45
2022/01/30 04:03:10;;;;;;;20.27;4.78;;;6.00;99.90;;;;;;5050585;28;20219;-44
2022/01/30 04:05:36;;;;;;;30.52;7.03;;;6.00;99.90;;;;;;5050183;28;20113;-44
2022/01/30 04:08:02;;;;;;;40.80;6.13;;;5.90;99.90;;;;;;5048544;28;20052;-44
2022/01/30 04:10:29;;;;;;;27.52;6.18;;;5.90;99.90;;;;;;5049114;28;20136;-44
2022/01/30 04:12:55;;;;;;;32.05;5.32;;;6.00;99.90;;;;;;5050615;28;20037;-44
2022/01/30 04:15:21;;;;;;;23.77;5.60;;;5.90;99.90;;;;;;5048972;28;20146;-45
2022/01/30 04:17:46;;;;;;;31.98;6.43;;;6.00;99.90;;;;;;5049714;28;20125;-44
2022/01/30 04:20:12;;;;;;;37.00;7.60;;;6.00;99.90;;;;;;5049869;28;20025;-44
2022/01/30 04:22:38;;;;;;;30.05;5.03;;;6.00;99.90;;;;;;5050174;28;20541;-44
2022/01/30 04:25:04;;;;;;;23.08;6.07;;;6.00;99.90;;;;;;5050114;28;20067;-44
2022/01/30 04:27:29;;;;;;;31.65;6.72;;;6.00;99.90;;;;;;5049462;28;20029;-44
2022/01/30 04:29:55;;;;;;;26.55;6.53;;;6.00;99.90;;;;;;5048773;28;20091;-44
2022/01/30 04:32:21;;;;;;;34.80;8.07;;;6.00;99.90;;;;;;5049953;28;20029;-45
2022/01/30 04:34:54;;;;;;;30.80;6.22;;;6.00;99.90;;;;;;5048572;28;20433;-44
2022/01/30 04:37:28;;;;;;;34.47;7.30;;;6.00;99.90;;;;;;5049236;28;20109;-45
2022/01/30 04:52:00;;;;;;;33.85;6.03;;;5.80;99.90;;;;;;5050070;28;20017;-44
2022/01/30 04:53:53;;;;;;;29.52;5.72;;;5.20;99.90;;;;;;5049610;28;20098;-44
2022/01/30 04:56:54;;;;;;;37.63;5.93;;;5.00;99.90;;;;;;5049899;28;20060;-44
2022/01/30 05:09:26;;;;;;;34.22;5.93;;;5.00;99.90;;;;;;5048742;28;20120;-44
2022/01/30 05:11:52;;;;;;;55.50;7.82;;;5.00;99.90;;;;;;5049209;28;20191;-44
2022/01/30 05:14:21;;;;;;;28.77;6.43;;;5.00;99.90;;;;;;5047947;28;20352;-44
2022/01/30 05:16:47;;;;;;;28.33;5.75;;;5.00;99.90;;;;;;5047209;28;20028;-44
2022/01/30 05:19:13;;;;;;;38.38;6.82;;;5.10;99.90;;;;;;5048452;28;20021;-44
2022/01/30 05:21:39;;;;;;;34.60;8.00;;;5.20;99.90;;;;;;5049318;28;20021;-44
2022/01/30 05:24:05;;;;;;;44.92;9.20;;;5.20;99.90;;;;;;5049015;28;20071;-44
2022/01/30 05:26:31;;;;;;;49.67;7.65;;;5.30;99.90;;;;;;5048952;28;20052;-44
2022/01/30 05:28:57;;;;;;;34.10;6.57;;;5.30;99.90;;;;;;5048608;28;20029;-44
2022/01/30 05:31:23;;;;;;;32.83;6.35;;;5.30;99.90;;;;;;5048649;28;20078;-44
2022/01/30 05:33:48;;;;;;;37.17;6.85;;;5.40;99.90;;;;;;5048973;28;20495;-44
2022/01/30 05:36:14;;;;;;;32.38;6.25;;;5.40;99.90;;;;;;5048994;28;20025;-43
2022/01/30 05:38:40;;;;;;;43.40;7.88;;;5.40;99.90;;;;;;5047108;28;20029;-44
2022/01/30 05:41:06;;;;;;;34.08;6.50;;;5.40;99.90;;;;;;5049217;28;20418;-44
2022/01/30 05:43:33;;;;;;;50.50;6.63;;;5.50;99.90;;;;;;5048921;28;20383;-43
2022/01/30 05:46:17;;;;;;;40.03;6.93;;;5.50;99.90;;;;;;5048735;28;20532;-44
2022/01/30 05:48:43;;;;;;;32.83;6.00;;;5.50;99.90;;;;;;5048394;28;20033;-44
2022/01/30 05:51:09;;;;;;;42.30;7.13;;;5.50;99.90;;;;;;5047264;28;20457;-44
2022/01/30 05:53:34;;;;;;;39.78;8.27;;;5.50;99.90;;;;;;5048804;28;20096;-45
2022/01/30 05:56:00;;;;;;;50.00;7.90;;;5.50;99.90;;;;;;5048813;28;20025;-44
2022/01/30 05:58:25;;;;;;;33.22;7.00;;;5.60;99.90;;;;;;5047888;28;20021;-44
2022/01/30 06:00:51;;;;;;;38.47;6.97;;;5.60;99.90;;;;;;5048744;28;20029;-43
2022/01/30 06:03:16;;;;;;;40.63;7.57;;;5.60;99.90;;;;;;5048484;28;20380;-46
2022/01/30 06:05:45;;;;;;;35.80;6.65;;;5.70;99.90;;;;;;5041669;28;20029;-46
2022/01/30 06:08:15;;;;;;;27.83;6.90;;;5.70;99.90;;;;;;5027931;28;20640;-44
2022/01/30 06:10:40;;;;;;;35.30;7.00;;;5.70;99.90;;;;;;5028285;28;20025;-45
2022/01/30 06:13:06;;;;;;;40.20;6.70;;;5.70;99.90;;;;;;5028551;28;20437;-44
2022/01/30 06:15:31;;;;;;;55.13;7.40;;;5.70;99.90;;;;;;5028425;28;20065;-44
2022/01/30 06:17:57;;;;;;;42.15;8.07;;;5.70;99.90;;;;;;5027891;28;20028;-45
2022/01/30 06:20:22;;;;;;;40.03;8.07;;;5.60;99.90;;;;;;5028522;28;20037;-44
2022/01/30 06:22:48;;;;;;;41.70;9.43;;;5.60;99.90;;;;;;5041298;28;20252;-44
2022/01/30 06:25:14;;;;;;;40.25;6.88;;;5.60;99.90;;;;;;5031042;28;20528;-44
2022/01/30 06:27:40;;;;;;;32.65;5.90;;;5.60;99.90;;;;;;5027185;28;20503;-44
2022/01/30 06:30:07;;;;;;;34.50;6.80;;;5.60;99.90;;;;;;5032824;28;20084;-44
2022/01/30 06:32:32;;;;;;;39.30;7.35;;;5.60;99.90;;;;;;5039655;28;20482;-46
2022/01/30 06:34:58;;;;;;;39.28;7.35;;;5.60;99.90;;;;;;5040987;28;20057;-44
2022/01/30 06:37:23;;;;;;;44.25;7.00;;;5.60;99.90;;;;;;5035066;28;20034;-45
2022/01/30 06:39:49;;;;;;;38.20;7.13;;;5.60;99.90;;;;;;5041100;28;20040;-45
2022/01/30 06:42:15;;;;;;;39.38;8.57;;;5.60;99.90;;;;;;5052204;28;20040;-45
2022/01/30 06:44:43;;;;;;;32.53;6.22;;;5.60;99.90;;;;;;5052057;28;20025;-44
2022/01/30 06:47:09;;;;;;;39.85;7.50;;;5.60;99.90;;;;;;5051872;28;20394;-44
2022/01/30 06:49:34;;;;;;;42.25;7.32;;;5.60;99.90;;;;;;5051184;28;20041;-46
2022/01/30 06:52:00;;;;;;;36.75;8.25;;;5.60;99.90;;;;;;5050289;28;20116;-46
2022/01/30 06:54:25;;;;;;;40.40;7.85;;;5.60;99.90;;;;;;5050393;28;20028;-44
2022/01/30 06:56:50;;;;;;;32.20;6.43;;;5.60;99.90;;;;;;5050392;28;20039;-47
2022/01/30 06:59:16;;;;;;;48.95;9.52;;;5.50;99.90;;;;;;5049110;28;20028;-45
2022/01/30 07:01:41;;;;;;;43.28;7.95;;;5.60;99.90;;;;;;5045323;28;20471;-45
2022/01/30 07:04:07;;;;;;;43.15;9.15;;;5.60;99.90;;;;;;5030261;28;20127;-44
2022/01/30 07:06:32;;;;;;;33.45;7.65;;;5.60;99.90;;;;;;5040327;28;20036;-44
2022/01/30 07:08:58;;;;;;;35.40;8.90;;;5.60;99.90;;;;;;5047756;28;20626;-45
2022/01/30 07:11:24;;;;;;;35.25;5.88;;;5.50;99.90;;;;;;5031542;28;20037;-45
2022/01/30 07:13:49;;;;;;;38.35;6.55;;;5.60;99.90;;;;;;5031735;28;20429;-44
2022/01/30 07:16:15;;;;;;;45.33;7.60;;;5.60;99.90;;;;;;5031652;28;20065;-44
2022/01/30 07:18:41;;;;;;;32.85;7.97;;;5.60;99.90;;;;;;5029761;28;20498;-44
2022/01/30 07:21:09;;;;;;;41.50;7.78;;;5.60;99.90;;;;;;5031592;28;20071;-47
2022/01/30 07:23:38;;;;;;;42.35;6.82;;;5.60;99.90;;;;;;5031494;28;20207;-44
2022/01/30 07:26:04;;;;;;;36.95;7.68;;;5.60;99.90;;;;;;5032890;28;20590;-44
2022/01/30 07:28:29;;;;;;;49.00;7.63;;;5.60;99.90;;;;;;5045930;28;20120;-44
2022/01/30 07:30:55;;;;;;;47.33;9.75;;;5.60;99.90;;;;;;5050887;28;20406;-46
2022/01/30 07:33:21;;;;;;;40.75;8.50;;;5.60;99.90;;;;;;5050517;28;20028;-44
2022/01/30 07:35:47;;;;;;;32.80;6.68;;;5.60;99.90;;;;;;5051053;28;20025;-44
2022/01/30 07:38:13;;;;;;;38.83;7.85;;;5.60;99.90;;;;;;5039526;28;20033;-44
2022/01/30 07:40:39;;;;;;;29.42;6.78;;;5.70;99.90;;;;;;5042097;28;20045;-47
2022/01/30 07:43:05;;;;;;;28.42;6.25;;;5.70;99.90;;;;;;5041379;28;20104;-45
2022/01/30 07:45:30;;;;;;;45.65;7.25;;;5.60;99.90;;;;;;5039472;28;20456;-45
2022/01/30 07:47:56;;;;;;;42.15;7.35;;;5.60;99.90;;;;;;5039677;28;20029;-44
2022/01/30 07:50:21;;;;;;;33.85;6.28;;;5.70;99.90;;;;;;5030672;28;20147;-46
2022/01/30 07:52:48;;;;;;;50.15;8.27;;;5.60;99.90;;;;;;5030546;28;20037;-44
2022/01/30 07:55:13;;;;;;;43.13;8.90;;;5.70;99.90;;;;;;5030981;28;20238;-47
2022/01/30 07:57:39;;;;;;;35.33;7.95;;;5.70;99.90;;;;;;5029925;28;20022;-44
2022/01/30 08:00:06;;;;;;;37.10;6.57;;;5.70;99.90;;;;;;5030794;28;20021;-44
2022/01/30 08:02:31;;;;;;;49.42;7.13;;;5.70;99.90;;;;;;5029164;28;20029;-44
2022/01/30 08:04:57;;;;;;;41.80;7.35;;;5.80;99.90;;;;;;5030721;28;20536;-44
2022/01/30 08:07:23;;;;;;;31.80;6.53;;;5.90;99.90;;;;;;5030719;28;20033;-44
2022/01/30 08:09:48;;;;;;;36.20;6.68;;;5.90;99.90;;;;;;5030821;28;20504;-44
2022/01/30 08:12:14;;;;;;;42.65;7.93;;;5.90;99.90;;;;;;5030582;28;20040;-44
2022/01/30 08:14:39;;;;;;;35.92;7.47;;;6.00;99.90;;;;;;5028952;28;20120;-45
2022/01/30 08:17:05;;;;;;;33.58;7.35;;;6.00;99.90;;;;;;5030361;28;20390;-44
2022/01/30 08:19:30;;;;;;;35.83;7.00;;;6.00;99.90;;;;;;5029616;28;20022;-44
2022/01/30 08:21:57;;;;;;;29.17;6.50;;;6.10;99.90;;;;;;5030303;28;20033;-44
2022/01/30 08:24:24;;;;;;;39.00;5.43;;;6.00;99.90;;;;;;5030362;28;20026;-44
2022/01/30 08:26:50;;;;;;;36.92;5.78;;;6.10;99.90;;;;;;5030276;28;20025;-44
2022/01/30 08:29:16;;;;;;;39.05;6.55;;;6.10;99.90;;;;;;5029643;28;20395;-44
2022/01/30 08:31:42;;;;;;;32.47;6.03;;;6.10;99.90;;;;;;5028637;28;20033;-45
2022/01/30 08:34:07;;;;;;;44.42;7.20;;;6.10;99.90;;;;;;5030079;28;20021;-45
2022/01/30 08:36:33;;;;;;;36.60;8.40;;;6.10;99.90;;;;;;5030062;28;20083;-45
2022/01/30 08:38:58;;;;;;;38.20;6.57;;;6.10;99.90;;;;;;5029231;28;20030;-45
2022/01/30 08:41:24;;;;;;;28.73;5.82;;;6.20;99.90;;;;;;5029872;28;20033;-45
2022/01/30 08:43:49;;;;;;;34.53;6.28;;;6.20;99.90;;;;;;5029569;28;20041;-45
2022/01/30 08:46:15;;;;;;;29.17;5.60;;;6.20;99.90;;;;;;5029622;28;20033;-45
2022/01/30 08:48:40;;;;;;;37.53;7.03;;;6.30;99.90;;;;;;5029018;28;20428;-46
2022/01/30 08:51:06;;;;;;;28.88;5.35;;;6.20;99.90;;;;;;5029150;28;20340;-45
2022/01/30 08:53:31;;;;;;;31.83;7.13;;;6.20;99.90;;;;;;5029474;28;20029;-46
2022/01/30 08:55:57;;;;;;;34.30;6.15;;;6.30;99.90;;;;;;5029738;28;20080;-46
2022/01/30 08:58:22;;;;;;;33.70;6.88;;;6.30;99.90;;;;;;5029194;28;20025;-46
2022/01/30 09:00:48;;;;;;;39.65;8.40;;;6.30;99.90;;;;;;5029225;28;20018;-46
2022/01/30 09:03:13;;;;;;;35.28;7.70;;;6.30;99.90;;;;;;5029671;28;20029;-47
2022/01/30 09:05:39;;;;;;;51.22;7.70;;;6.30;99.90;;;;;;5029265;28;20173;-46
2022/01/30 09:08:05;;;;;;;33.40;6.15;;;6.40;99.90;;;;;;5028846;28;20020;-46
2022/01/30 09:10:32;;;;;;;38.20;6.50;;;6.40;99.90;;;;;;5029555;28;20482;-45
2022/01/30 09:12:58;;;;;;;36.25;6.72;;;6.40;99.90;;;;;;5029268;28;20026;-46
2022/01/30 09:15:23;;;;;;;29.90;6.55;;;6.40;99.90;;;;;;5029466;28;20293;-46
2022/01/30 09:17:51;;;;;;;33.83;6.28;;;6.50;99.90;;;;;;5028902;28;20151;-46
2022/01/30 09:20:17;;;;;;;37.70;7.18;;;6.50;99.90;;;;;;5027807;28;20049;-45
2022/01/30 09:22:43;;;;;;;31.38;5.35;;;6.50;99.90;;;;;;5029342;28;20107;-45
2022/01/30 09:25:09;;;;;;;28.15;5.90;;;6.50;99.90;;;;;;5029450;28;20084;-46
2022/01/30 09:27:35;;;;;;;29.00;5.78;;;6.50;99.90;;;;;;5028684;28;20888;-46
2022/01/30 09:30:00;;;;;;;35.65;6.82;;;6.50;99.90;;;;;;5028239;28;20104;-46
2022/01/30 09:32:26;;;;;;;41.95;6.60;;;6.60;99.90;;;;;;5027497;28;20087;-46
2022/01/30 09:34:51;;;;;;;30.25;5.88;;;6.50;99.90;;;;;;5027473;28;20112;-45
2022/01/30 09:37:17;;;;;;;36.30;5.97;;;6.60;99.90;;;;;;5027045;28;20029;-45
2022/01/30 09:39:43;;;;;;;35.25;6.78;;;6.60;99.90;;;;;;5027770;28;20021;-46
2022/01/30 09:42:09;;;;;;;35.80;6.50;;;6.60;99.90;;;;;;5028208;28;20029;-46
2022/01/30 09:44:39;;;;;;;30.50;6.55;;;6.60;99.90;;;;;;5028639;28;20565;-46
2022/01/30 09:47:14;;;;;;;25.23;5.15;;;6.60;99.90;;;;;;5028976;28;20083;-45
2022/01/30 09:49:50;;;;;;;36.15;6.80;;;6.70;99.90;;;;;;5028994;28;20033;-46
2022/01/30 09:52:17;;;;;;;37.92;7.05;;;6.70;99.90;;;;;;5028975;28;20030;-45
2022/01/30 09:54:43;;;;;;;41.20;6.80;;;6.70;99.90;;;;;;5029111;28;20195;-45
2022/01/30 09:57:09;;;;;;;33.78;6.50;;;6.70;99.90;;;;;;5027720;28;20022;-45
2022/01/30 09:59:34;;;;;;;58.80;8.98;;;6.70;99.90;;;;;;5028532;28;20028;-46
2022/01/30 10:02:07;;;;;;;48.40;7.05;;;6.70;99.90;;;;;;5028928;28;20429;-45
2022/01/30 10:04:33;;;;;;;32.50;8.40;;;6.60;99.90;;;;;;5028861;28;20035;-45
2022/01/30 10:07:09;;;;;;;36.03;7.25;;;6.60;99.90;;;;;;5028783;28;20025;-46
2022/01/30 10:09:42;;;;;;;39.25;7.18;;;6.70;99.90;;;;;;5028423;28;20029;-45
2022/01/30 10:15:15;;;;;;;48.33;8.48;;;6.70;99.90;;;;;;5028779;28;20252;-46
2022/01/30 10:17:48;;;;;;;47.00;7.57;;;6.70;99.90;;;;;;5028118;28;20095;-45
2022/01/30 10:20:16;;;;;;;38.28;7.55;;;6.70;99.90;;;;;;5028780;28;20028;-45
2022/01/30 10:22:52;;;;;;;39.08;7.80;;;6.70;99.90;;;;;;5028544;28;20037;-47
2022/01/30 10:25:26;;;;;;;36.60;6.70;;;6.70;99.90;;;;;;5028697;28;20113;-46
2022/01/30 10:28:15;;;;;;;49.00;8.15;;;6.70;99.90;;;;;;5027916;28;20390;-46
2022/01/30 10:30:50;;;;;;;51.28;7.57;;;6.80;99.90;;;;;;5028453;28;20040;-45
2022/01/30 10:33:19;;;;;;;31.40;7.40;;;6.70;99.90;;;;;;5027189;28;20035;-46
2022/01/30 10:35:53;;;;;;;34.78;7.50;;;6.80;99.90;;;;;;5027120;28;20064;-46
2022/01/30 10:38:35;;;;;;;43.80;7.88;;;6.80;99.90;;;;;;5027948;28;20018;-46
2022/01/30 10:41:14;;;;;;;32.47;7.32;;;6.80;99.90;;;;;;5028465;28;20044;-46
2022/01/30 10:43:56;;;;;;;34.13;6.13;;;6.90;99.80;;;;;;5028538;28;20486;-45
2022/01/30 10:46:24;;;;;;;30.60;6.72;;;7.00;99.60;;;;;;5028561;28;20022;-45
2022/01/30 10:48:53;;;;;;;49.70;8.52;;;7.00;98.80;;;;;;5026534;28;20075;-46
2022/01/30 10:51:18;;;;;;;31.08;6.47;;;7.00;98.50;;;;;;5028717;28;20108;-46
2022/01/30 10:53:46;;;;;;;43.67;7.75;;;7.00;98.80;;;;;;5028456;28;20120;-45
2022/01/30 10:56:39;;;;;;;52.28;9.70;;;7.00;99.20;;;;;;5028534;28;20017;-46
2022/01/30 10:59:20;;;;;;;44.85;8.95;;;7.10;99.40;;;;;;5026921;28;20487;-48
2022/01/30 11:01:48;;;;;;;46.55;9.80;;;7.00;99.60;;;;;;5028318;28;20029;-46
2022/01/30 11:04:24;;;;;;;38.92;7.90;;;7.10;99.10;;;;;;5028556;28;20072;-46
2022/01/30 11:06:50;;;;;;;37.45;6.97;;;7.10;99.40;;;;;;5026912;28;20025;-46
2022/01/30 11:09:21;;;;;;;32.08;7.65;;;7.10;99.20;;;;;;5026435;28;20076;-46
2022/01/30 11:11:54;;;;;;;37.55;8.27;;;7.10;99.40;;;;;;5028220;28;20044;-46
2022/01/30 11:14:23;;;;;;;43.08;8.13;;;7.10;99.30;;;;;;5028373;28;20029;-47
2022/01/30 11:16:57;;;;;;;44.22;8.55;;;7.10;99.30;;;;;;5031558;28;20018;-46
2022/01/30 11:19:25;;;;;;;47.10;9.07;;;7.30;97.90;;;;;;5031426;28;20017;-46
2022/01/30 11:21:53;;;;;;;40.92;9.68;;;7.30;98.40;;;;;;5030353;28;20033;-46
2022/01/30 11:24:22;;;;;;;46.83;7.53;;;7.30;98.30;;;;;;5031740;28;20099;-46
2022/01/30 11:26:48;;;;;;;44.03;8.77;;;7.40;97.50;;;;;;5030524;28;20482;-46
2022/01/30 11:29:16;;;;;;;52.88;7.25;;;7.50;97.80;;;;;;5031225;28;20037;-46
2022/01/30 11:31:43;;;;;;;38.85;7.57;;;7.50;97.20;;;;;;5030368;28;20128;-45
2022/01/30 11:34:09;;;;;;;40.10;7.40;;;7.50;97.70;;;;;;5031608;28;20040;-47
2022/01/30 11:36:39;;;;;;;45.33;8.43;;;7.40;96.30;;;;;;5031362;28;20029;-46
2022/01/30 11:39:12;;;;;;;35.42;8.93;;;7.30;96.40;;;;;;5030814;28;20021;-45
2022/01/30 11:41:38;;;;;;;44.53;8.05;;;7.30;95.80;;;;;;5031755;28;20029;-45
2022/01/30 11:44:19;;;;;;;40.78;7.38;;;7.20;95.90;;;;;;5031339;28;20044;-46
2022/01/30 11:46:57;;;;;;;;;;;7.20;97.30;;;;;;5031714;28;20051;-49
2022/01/30 11:49:37;;;;;;;35.60;7.85;;;7.30;96.20;;;;;;5030719;28;19916;-45
2022/01/30 11:52:03;;;;;;;40.45;8.90;;;7.30;96.70;;;;;;5031088;28;20462;-45
2022/01/30 11:54:35;;;;;;;42.67;8.23;;;7.30;96.00;;;;;;5031071;28;20364;-46
2022/01/30 11:57:02;;;;;;;43.42;8.05;;;7.40;96.70;;;;;;5031425;28;20571;-46
2022/01/30 11:59:39;;;;;;;41.70;8.70;;;7.30;97.10;;;;;;5029306;28;20206;-45
2022/01/30 12:02:19;;;;;;;43.10;8.95;;;7.40;97.30;;;;;;5031056;28;20033;-45
2022/01/30 12:04:56;;;;;;;57.28;9.55;;;7.30;97.10;;;;;;5030842;28;20364;-46
2022/01/30 12:07:37;;;;;;;42.20;9.07;;;7.40;97.60;;;;;;5030157;28;20036;-46
2022/01/30 12:10:15;;;;;;;37.75;7.75;;;7.30;96.70;;;;;;5031101;28;20057;-45
2022/01/30 12:12:59;;;;;;;48.60;7.88;;;7.30;97.40;;;;;;5030584;28;20088;-46
2022/01/30 12:15:33;;;;;;;43.53;7.22;;;7.30;97.00;;;;;;5030988;28;20105;-45
2022/01/30 12:17:59;;;;;;;46.78;8.13;;;7.30;96.60;;;;;;5030070;28;20025;-45
2022/01/30 12:20:26;;;;;;;50.10;8.82;;;7.30;96.80;;;;;;5030676;28;20522;-46
2022/01/30 12:22:53;;;;;;;42.63;8.52;;;7.40;96.60;;;;;;5030620;28;20029;-45
2022/01/30 12:25:29;;;;;;;43.72;7.82;;;7.30;97.40;;;;;;5030441;28;20025;-45
2022/01/30 12:28:03;;;;;;;31.67;7.68;;;7.30;97.40;;;;;;5029888;28;20036;-46
2022/01/30 12:30:30;;;;;;;43.17;7.55;;;7.40;97.80;;;;;;5030419;28;20464;-48
2022/01/30 12:32:57;;;;;;;45.00;9.15;;;7.30;97.60;;;;;;5030403;28;20252;-46
2022/01/30 12:35:23;;;;;;;37.75;9.07;;;7.30;97.10;;;;;;5030320;28;20021;-45
2022/01/30 12:37:49;;;;;;;42.10;8.13;;;7.30;97.30;;;;;;5029765;28;20036;-45
2022/01/30 12:40:18;;;;;;;38.53;8.00;;;7.30;97.20;;;;;;5030137;28;20030;-46
2022/01/30 12:42:44;;;;;;;36.13;9.13;;;7.30;96.00;;;;;;5030165;28;20537;-46
2022/01/30 12:45:12;;;;;;;41.28;8.70;;;7.30;96.00;;;;;;5028944;28;20033;-45
2022/01/30 12:47:52;;;;;;;37.08;8.30;;;7.40;96.20;;;;;;5029694;28;20028;-45
2022/01/30 12:50:19;;;;;;;38.60;7.57;;;7.40;95.40;;;;;;5030181;28;20037;-45
2022/01/30 12:52:49;;;;;;;41.45;8.57;;;7.30;95.80;;;;;;5030346;28;20053;-46
2022/01/30 12:55:17;;;;;;;39.03;7.57;;;7.40;95.60;;;;;;5030101;28;20503;-45
2022/01/30 12:57:44;;;;;;;43.40;8.85;;;7.30;95.50;;;;;;5028094;28;20044;-45
2022/01/30 13:00:12;;;;;;;47.88;7.50;;;7.30;95.90;;;;;;5028649;28;20049;-46
2022/01/30 13:02:38;;;;;;;58.15;10.38;;;7.30;96.60;;;;;;5030199;28;20025;-46
2022/01/30 13:05:10;;;;;;;35.70;7.97;;;7.30;96.50;;;;;;5029720;28;20111;-45
2022/01/30 13:07:37;;;;;;;43.28;7.50;;;7.30;96.20;;;;;;5029181;28;20039;-45
2022/01/30 13:10:09;;;;;;;38.80;7.80;;;7.20;96.80;;;;;;5029536;28;20068;-48
2022/01/30 13:12:35;;;;;;;39.60;7.68;;;7.20;95.40;;;;;;5029866;28;20033;-48
2022/01/30 13:15:24;;;;;;;38.15;9.00;;;7.10;96.50;;;;;;5029933;28;20021;-48
2022/01/30 13:17:50;;;;;;;38.60;6.82;;;7.20;96.40;;;;;;5028539;28;20112;-49
2022/01/30 13:20:21;;;;;;;40.13;7.38;;;7.20;96.40;;;;;;5028379;28;20017;-46
2022/01/30 13:22:47;;;;;;;41.53;7.57;;;7.20;96.60;;;;;;5027789;28;20115;-46
2022/01/30 13:25:17;;;;;;;56.65;10.23;;;7.30;96.00;;;;;;5027815;28;20272;-45
2022/01/30 13:27:48;;;;;;;51.67;8.15;;;7.10;96.50;;;;;;5027315;28;20022;-46
2022/01/30 13:30:25;;;;;;;47.15;7.82;;;7.10;96.70;;;;;;5027890;28;20315;-48
2022/01/30 13:32:52;;;;;;;46.00;7.57;;;7.10;97.00;;;;;;5028549;28;20032;-45
2022/01/30 13:35:20;;;;;;;36.90;9.20;;;7.00;97.40;;;;;;5029218;28;20037;-44
2022/01/30 13:37:47;;;;;;;39.97;8.27;;;7.00;97.70;;;;;;5028478;28;20013;-44
2022/01/30 13:40:27;;;;;;;40.70;8.35;;;7.00;97.70;;;;;;5027787;28;20466;-44